Time;durP1;ratioP1;P1;durP2;ratioP2;P2;SDS_P1;SDS_P2;PMS_P1;PMS_P2;Temp;Humidity;BMP_temperature;BMP_pressure;BME280_temperature;BME280_humidity;BME280_pressure;Samples;Min_cycle;Max_cycle;Signal;HPM_P1;HPM_P2
2023/03/10 00:01:29;;;;;;;47.30;30.30;;;;;;;2.50;100.00;98679.88;105555;1254;69926;-50
2023/03/10 00:03:59;;;;;;;47.90;30.40;;;;;;;2.50;100.00;98678.50;105482;1256;70419;-48
2023/03/10 00:06:32;;;;;;;48.20;29.40;;;;;;;2.50;100.00;98678.84;105592;1253;75086;-48
2023/03/10 00:09:01;;;;;;;47.80;27.90;;;;;;;2.49;100.00;98668.52;105468;1256;83541;-48
2023/03/10 00:11:29;;;;;;;47.30;29.80;;;;;;;2.52;100.00;98663.59;105511;1253;72688;-48
2023/03/10 00:13:57;;;;;;;51.30;31.60;;;;;;;2.53;100.00;98664.07;105401;1256;70012;-48
2023/03/10 00:16:27;;;;;;;50.50;31.40;;;;;;;2.53;100.00;98663.04;105456;1256;70009;-47
2023/03/10 00:18:56;;;;;;;53.30;32.10;;;;;;;2.55;100.00;98662.81;105463;1256;75106;-47
2023/03/10 00:21:26;;;;;;;49.90;32.10;;;;;;;2.56;100.00;98655.17;105462;1253;82421;-47
2023/03/10 00:23:55;;;;;;;50.70;30.40;;;;;;;2.57;100.00;98655.65;105433;1254;73507;-48
2023/03/10 00:26:26;;;;;;;44.20;27.60;;;;;;;2.59;100.00;98651.27;105519;1254;69834;-49
2023/03/10 00:28:55;;;;;;;50.10;29.90;;;;;;;2.63;100.00;98647.38;105472;1253;70234;-47
2023/03/10 00:31:25;;;;;;;50.40;30.40;;;;;;;2.63;100.00;98642.72;105502;1254;74931;-48
2023/03/10 00:33:55;;;;;;;51.80;30.80;;;;;;;2.62;100.00;98633.09;105446;1257;83129;-49
2023/03/10 00:36:28;;;;;;;52.10;31.10;;;;;;;2.60;100.00;98634.54;105845;1254;72312;-48
2023/03/10 00:38:59;;;;;;;54.60;33.40;;;;;;;2.60;100.00;98629.52;105502;1253;69980;-48
2023/03/10 00:41:30;;;;;;;56.60;33.10;;;;;;;2.60;100.00;98624.88;105648;1256;70099;-47
2023/03/10 00:43:59;;;;;;;57.70;33.00;;;;;;;2.63;100.00;98610.29;105461;1253;73817;-48
2023/03/10 00:46:28;;;;;;;49.60;31.10;;;;;;;2.64;100.00;98601.10;105523;1257;83141;-47
2023/03/10 00:48:57;;;;;;;52.00;31.10;;;;;;;2.65;100.00;98592.80;105739;1253;73696;-48
2023/03/10 00:51:26;;;;;;;57.10;32.80;;;;;;;2.67;100.00;98594.30;105488;1253;70071;-47
2023/03/10 00:53:55;;;;;;;52.50;31.30;;;;;;;2.68;100.00;98586.85;105503;1257;69959;-47
2023/03/10 00:56:24;;;;;;;50.20;29.20;;;;;;;2.71;100.00;98583.48;105540;1257;72875;-48
2023/03/10 00:58:55;;;;;;;51.70;30.50;;;;;;;2.72;100.00;98579.31;105770;1253;83594;-48
2023/03/10 01:01:33;;;;;;;;;;;;;;;2.73;100.00;98569.79;105451;1253;73932;-47
2023/03/10 01:04:12;;;;;;;51.50;30.90;;;;;;;2.69;100.00;98559.38;105500;1253;70012;-47
2023/03/10 01:06:43;;;;;;;55.80;34.40;;;;;;;2.67;100.00;98557.58;105486;1253;70182;-47
2023/03/10 01:09:11;;;;;;;;;;;;;;;2.66;100.00;98545.70;105680;1257;74284;-48
2023/03/10 01:11:39;;;;;;;51.10;30.20;;;;;;;2.65;100.00;98548.63;105325;1259;83405;-47
2023/03/10 01:14:10;;;;;;;53.10;31.70;;;;;;;2.66;100.00;98535.16;105445;1258;73727;-48
2023/03/10 01:16:38;;;;;;;47.50;30.10;;;;;;;2.65;100.00;98538.13;105550;1254;70009;-47
2023/03/10 01:19:07;;;;;;;48.60;30.00;;;;;;;2.65;100.00;98522.42;105411;1253;69970;-46
2023/03/10 01:21:37;;;;;;;54.00;30.60;;;;;;;2.64;100.00;98519.88;105423;1253;74934;-49
2023/03/10 01:24:05;;;;;;;;;;;;;;;2.66;100.00;98515.84;105446;1257;82261;-47
2023/03/10 01:26:34;;;;;;;48.70;30.70;;;;;;;2.70;100.00;98505.05;105430;1253;73726;-48
2023/03/10 01:29:02;;;;;;;51.60;30.60;;;;;;;2.75;100.00;98505.20;105475;1255;70198;-47
2023/03/10 01:31:30;;;;;;;53.40;31.70;;;;;;;2.79;100.00;98503.30;105425;1258;70436;-46
2023/03/10 01:33:59;;;;;;;54.40;32.70;;;;;;;2.84;100.00;98498.31;105555;1253;73954;-47
2023/03/10 01:36:27;;;;;;;49.10;31.20;;;;;;;2.87;100.00;98502.17;105454;1257;82968;-47
2023/03/10 01:38:56;;;;;;;50.00;31.10;;;;;;;2.90;100.00;98502.40;105410;1258;73897;-48
2023/03/10 01:41:25;;;;;;;56.50;32.70;;;;;;;2.90;100.00;98500.67;105395;1259;70120;-47
2023/03/10 01:43:55;;;;;;;52.70;31.30;;;;;;;2.91;100.00;98496.17;105468;1257;70540;-48
2023/03/10 01:46:38;;;;;;;54.50;31.90;;;;;;;2.93;100.00;98486.45;105674;1257;73561;-48
2023/03/10 01:49:13;;;;;;;53.40;32.70;;;;;;;2.96;100.00;98482.55;105749;1257;83041;-48
2023/03/10 01:51:42;;;;;;;;;;;;;;;2.97;100.00;98476.45;105388;1258;72838;-46
2023/03/10 01:54:16;;;;;;;49.80;30.90;;;;;;;2.98;100.00;98476.94;105655;1254;69990;-47
2023/03/10 01:56:44;;;;;;;52.90;32.30;;;;;;;2.99;100.00;98464.28;105292;1253;69998;-48
2023/03/10 01:59:13;;;;;;;46.90;29.50;;;;;;;3.02;100.00;98477.98;105657;1254;74991;-47
2023/03/10 02:01:42;;;;;;;48.40;29.60;;;;;;;3.06;100.00;98466.64;105414;1253;81477;-48
2023/03/10 02:04:19;;;;;;;47.40;28.30;;;;;;;3.08;100.00;98462.77;105818;1257;73803;-48
2023/03/10 02:06:50;;;;;;;51.70;30.70;;;;;;;3.11;100.00;98459.71;105428;1253;69929;-47
2023/03/10 02:09:20;;;;;;;46.10;30.00;;;;;;;3.14;100.00;98451.14;105306;1259;70012;-47
2023/03/10 02:11:48;;;;;;;50.10;31.40;;;;;;;3.17;100.00;98444.30;105452;1253;73850;-47
2023/03/10 02:14:17;;;;;;;49.40;30.60;;;;;;;3.20;100.00;98435.22;105419;1254;82018;-48
2023/03/10 02:16:46;;;;;;;49.00;31.50;;;;;;;3.22;100.00;98428.91;105435;1259;73945;-48
2023/03/10 02:19:28;;;;;;;53.50;33.70;;;;;;;3.23;100.00;98426.29;105420;1254;70013;-47
2023/03/10 02:22:08;;;;;;;51.90;32.50;;;;;;;3.24;100.00;98418.64;105583;1253;69836;-47
2023/03/10 02:24:50;;;;;;;52.70;31.50;;;;;;;3.26;100.00;98423.42;105388;1253;75141;-46
2023/03/10 02:27:21;;;;;;;47.90;30.50;;;;;;;3.32;100.00;98420.41;105426;1253;81998;-48
2023/03/10 02:29:59;;;;;;;46.20;29.50;;;;;;;3.34;100.00;98420.51;105472;1254;73743;-48
2023/03/10 02:32:33;;;;;;;51.80;31.50;;;;;;;3.36;100.00;98410.59;105500;1253;69873;-48
2023/03/10 02:35:03;;;;;;;45.00;28.20;;;;;;;3.39;100.00;98402.73;105443;1253;70038;-48
2023/03/10 02:37:34;;;;;;;47.90;29.20;;;;;;;3.41;100.00;98398.33;105412;1254;74856;-48
2023/03/10 02:40:28;;;;;;;45.30;28.90;;;;;;;3.42;100.00;98392.57;105590;1253;83768;-48
2023/03/10 02:43:21;;;;;;;43.60;27.20;;;;;;;3.46;100.00;98395.67;105558;1253;72843;-47
2023/03/10 02:45:55;;;;;;;43.40;27.00;;;;;;;3.49;100.00;98400.08;105590;1257;69923;-48
2023/03/10 02:48:30;;;;;;;42.30;29.00;;;;;;;3.50;100.00;98398.27;105391;1259;69934;-47
2023/03/10 02:51:01;;;;;;;46.40;29.00;;;;;;;3.51;100.00;98386.83;105305;1253;74910;-48
2023/03/10 02:53:29;;;;;;;50.30;30.60;;;;;;;3.51;100.00;98379.60;105446;1253;83268;-47
2023/03/10 02:55:58;;;;;;;44.80;29.00;;;;;;;3.49;100.00;98382.96;105340;1259;73652;-47
2023/03/10 02:58:30;;;;;;;51.60;29.80;;;;;;;3.50;100.00;98379.46;105568;1253;69989;-47
2023/03/10 03:01:00;;;;;;;43.90;29.40;;;;;;;3.53;100.00;98379.52;105275;1254;69979;-48
2023/03/10 03:03:29;;;;;;;41.70;27.70;;;;;;;3.52;100.00;98372.13;105389;1258;75063;-48
2023/03/10 03:05:58;;;;;;;44.50;28.10;;;;;;;3.51;100.00;98366.83;105393;1259;83343;-48
2023/03/10 03:08:27;;;;;;;42.70;27.60;;;;;;;3.50;100.00;98365.47;105438;1253;72846;-48
2023/03/10 03:10:55;;;;;;;45.20;28.50;;;;;;;3.51;100.00;98354.59;105496;1258;69948;-48
2023/03/10 03:13:24;;;;;;;45.00;27.60;;;;;;;3.51;100.00;98356.80;105412;1257;70003;-47
2023/03/10 03:15:52;;;;;;;41.00;26.90;;;;;;;3.55;100.00;98356.65;105486;1259;75122;-48
2023/03/10 03:18:22;;;;;;;39.70;26.40;;;;;;;3.56;100.00;98348.65;105437;1253;83176;-47
2023/03/10 03:20:51;;;;;;;40.70;26.60;;;;;;;3.57;100.00;98339.11;105455;1253;73805;-49
2023/03/10 03:23:19;;;;;;;44.40;29.60;;;;;;;3.57;100.00;98341.35;105376;1258;69983;-48
2023/03/10 03:25:48;;;;;;;42.30;28.40;;;;;;;3.57;100.00;98327.90;105383;1253;69827;-47
2023/03/10 03:28:18;;;;;;;50.30;29.30;;;;;;;3.55;100.00;98324.87;105444;1258;74981;-48
2023/03/10 03:30:48;;;;;;;44.40;27.90;;;;;;;3.55;100.00;98322.81;105356;1254;81959;-47
2023/03/10 03:33:17;;;;;;;43.10;27.90;;;;;;;3.56;100.00;98325.85;105456;1258;73791;-49
2023/03/10 03:35:45;;;;;;;41.70;26.60;;;;;;;3.55;100.00;98323.30;105413;1253;69987;-47
2023/03/10 03:38:16;;;;;;;38.30;25.70;;;;;;;3.56;100.00;98324.49;105467;1253;69835;-48
2023/03/10 03:40:45;;;;;;;36.90;24.30;;;;;;;3.57;100.00;98316.34;105887;1257;74785;-47
2023/03/10 03:43:14;;;;;;;39.20;25.00;;;;;;;3.59;100.00;98319.68;105487;1254;83402;-48
2023/03/10 03:45:43;;;;;;;37.60;25.00;;;;;;;3.63;100.00;98317.27;105478;1254;73691;-49
2023/03/10 03:48:13;;;;;;;38.00;23.80;;;;;;;3.67;100.00;98316.60;105492;1254;70063;-48
2023/03/10 03:50:42;;;;;;;37.70;25.10;;;;;;;3.70;100.00;98308.52;105512;1257;69887;-47
2023/03/10 03:53:18;;;;;;;39.10;26.00;;;;;;;3.71;100.00;98297.60;105652;1254;74632;-47
2023/03/10 03:55:48;;;;;;;35.80;23.30;;;;;;;3.72;100.00;98297.22;105479;1259;83155;-48
2023/03/10 03:58:18;;;;;;;41.70;25.00;;;;;;;3.73;100.00;98294.93;105275;1259;72367;-47
2023/03/10 04:00:47;;;;;;;38.20;25.50;;;;;;;3.73;100.00;98293.71;105157;1254;70005;-46
2023/03/10 04:03:18;;;;;;;41.30;26.20;;;;;;;3.75;100.00;98297.61;105495;1257;70037;-48
2023/03/10 04:05:47;;;;;;;40.00;26.40;;;;;;;3.78;100.00;98291.79;105445;1257;75193;-47
2023/03/10 04:08:16;;;;;;;41.20;26.30;;;;;;;3.78;100.00;98293.69;105394;1253;83393;-47
2023/03/10 04:10:54;;;;;;;37.70;25.30;;;;;;;3.78;100.00;98287.46;105248;1256;72887;-48
2023/03/10 04:13:24;;;;;;;39.20;24.60;;;;;;;3.79;100.00;98288.77;105408;1254;69992;-48
2023/03/10 04:15:55;;;;;;;36.50;24.80;;;;;;;3.80;100.00;98282.18;105419;1257;70005;-47
2023/03/10 04:18:24;;;;;;;37.70;24.60;;;;;;;3.83;100.00;98274.98;105600;1259;73917;-48
2023/03/10 04:20:52;;;;;;;38.00;23.50;;;;;;;3.86;100.00;98265.52;105620;1254;82551;-47
2023/03/10 04:23:20;;;;;;;38.80;23.60;;;;;;;3.90;100.00;98255.33;105454;1254;73781;-48
2023/03/10 04:25:49;;;;;;;40.10;22.40;;;;;;;3.94;100.00;98240.80;105413;1259;70063;-47
2023/03/10 04:28:18;;;;;;;31.70;20.50;;;;;;;3.99;100.00;98240.40;105793;1253;69942;-47
2023/03/10 04:30:47;;;;;;;30.50;19.90;;;;;;;4.04;100.00;98232.58;105467;1254;73822;-47
2023/03/10 04:33:17;;;;;;;32.70;20.70;;;;;;;4.08;100.00;98224.81;105471;1253;84016;-46
2023/03/10 04:35:50;;;;;;;33.70;21.90;;;;;;;4.10;100.00;98222.81;105741;1257;73920;-47
2023/03/10 04:38:22;;;;;;;35.60;23.60;;;;;;;4.12;100.00;98225.48;105445;1253;70073;-48
2023/03/10 04:40:55;;;;;;;39.00;25.30;;;;;;;4.11;100.00;98222.25;105635;1257;69976;-49
2023/03/10 04:43:27;;;;;;;40.80;25.00;;;;;;;4.09;100.00;98215.91;105729;1253;73631;-49
2023/03/10 04:45:57;;;;;;;36.60;24.70;;;;;;;4.09;100.00;98210.40;105485;1253;83510;-49
2023/03/10 04:48:26;;;;;;;35.90;22.50;;;;;;;4.08;100.00;98210.95;105417;1253;71783;-50
2023/03/10 04:50:55;;;;;;;35.50;22.20;;;;;;;4.07;100.00;98202.38;105473;1254;69899;-49
2023/03/10 04:53:24;;;;;;;34.00;23.10;;;;;;;4.07;100.00;98204.64;105492;1253;69939;-49
2023/03/10 04:55:52;;;;;;;35.60;22.40;;;;;;;4.06;100.00;98201.05;105773;1256;74207;-49
2023/03/10 04:58:21;;;;;;;31.70;21.10;;;;;;;4.07;100.00;98198.04;105469;1256;83510;-50
2023/03/10 05:00:50;;;;;;;30.40;20.40;;;;;;;4.10;100.00;98197.41;105438;1257;73977;-50
2023/03/10 05:03:30;;;;;;;29.20;18.30;;;;;;;4.13;100.00;98201.75;105531;1254;70423;-51
2023/03/10 05:05:58;;;;;;;30.20;18.50;;;;;;;4.16;100.00;98197.48;105464;1254;69850;-48
2023/03/10 05:08:27;;;;;;;29.20;18.90;;;;;;;4.20;100.00;98198.30;105497;1253;74639;-49
2023/03/10 05:10:56;;;;;;;29.50;19.30;;;;;;;4.22;100.00;98198.88;105477;1254;81887;-50
2023/03/10 05:13:24;;;;;;;26.50;17.50;;;;;;;4.24;100.00;98197.59;105279;1254;72768;-49
2023/03/10 05:15:52;;;;;;;26.80;16.40;;;;;;;4.28;100.00;98194.49;105442;1254;70015;-50
2023/03/10 05:18:21;;;;;;;25.30;13.90;;;;;;;4.36;100.00;98197.56;105334;1259;70450;-48
2023/03/10 05:20:56;;;;;;;23.00;15.80;;;;;;;4.53;100.00;98193.48;105455;1254;75002;-49
2023/03/10 05:23:25;;;;;;;23.20;15.20;;;;;;;4.65;100.00;98191.86;105483;1254;82349;-49
2023/03/10 05:25:54;;;;;;;22.50;14.10;;;;;;;4.72;100.00;98183.92;105478;1257;73431;-49
2023/03/10 05:28:23;;;;;;;22.20;13.90;;;;;;;4.77;100.00;98181.26;105560;1258;69836;-48
2023/03/10 05:30:52;;;;;;;23.40;14.00;;;;;;;4.83;100.00;98181.31;105495;1254;69852;-49
2023/03/10 05:33:20;;;;;;;25.70;15.10;;;;;;;4.90;100.00;98185.59;105418;1259;75200;-50
2023/03/10 05:35:50;;;;;;;22.50;15.00;;;;;;;4.94;100.00;98174.20;105518;1253;83004;-48
2023/03/10 05:38:19;;;;;;;19.80;13.80;;;;;;;4.94;100.00;98166.40;105580;1252;73918;-49
2023/03/10 05:40:47;;;;;;;19.90;12.60;;;;;;;4.95;100.00;98162.05;105572;1257;69963;-48
2023/03/10 05:43:15;;;;;;;16.80;10.30;;;;;;;4.97;100.00;98157.93;105554;1254;70255;-49
2023/03/10 05:45:53;;;;;;;13.90;8.70;;;;;;;5.05;100.00;98155.48;105544;1257;75304;-48
2023/03/10 05:48:22;;;;;;;13.00;7.50;;;;;;;5.16;100.00;98157.34;105698;1256;83696;-49
2023/03/10 05:51:03;;;;;;;11.90;7.20;;;;;;;5.28;100.00;98156.01;105962;1258;73917;-47
2023/03/10 05:53:32;;;;;;;13.00;7.70;;;;;;;5.39;100.00;98154.09;105958;1255;70798;-49
2023/03/10 05:56:05;;;;;;;11.40;6.00;;;;;;;5.49;100.00;98154.60;106397;1256;69967;-53
2023/03/10 05:58:34;;;;;;;12.60;6.50;;;;;;;5.58;100.00;98147.34;105993;1256;74726;-48
2023/03/10 06:01:03;;;;;;;10.70;5.10;;;;;;;5.69;100.00;98144.02;105906;1256;82443;-52
2023/03/10 06:03:32;;;;;;;9.30;5.40;;;;;;;5.80;100.00;98138.91;105626;1251;73713;-50
2023/03/10 06:06:00;;;;;;;10.70;5.40;;;;;;;5.87;100.00;98132.46;105621;1251;69973;-48
2023/03/10 06:08:29;;;;;;;7.50;5.30;;;;;;;5.93;100.00;98129.02;105616;1255;69979;-47
2023/03/10 06:10:58;;;;;;;9.30;5.00;;;;;;;6.00;100.00;98127.80;105698;1256;75024;-47
2023/03/10 06:13:26;;;;;;;7.20;4.50;;;;;;;6.08;100.00;98121.98;105789;1256;83328;-47
2023/03/10 06:16:00;;;;;;;7.40;4.60;;;;;;;6.14;100.00;98117.50;105533;1256;72882;-48
2023/03/10 06:18:28;;;;;;;7.40;4.80;;;;;;;6.19;100.00;98119.98;105700;1256;69989;-47
2023/03/10 06:20:57;;;;;;;8.40;4.10;;;;;;;6.24;100.00;98122.83;106142;1254;69887;-49
2023/03/10 06:23:25;;;;;;;6.60;3.90;;;;;;;6.31;100.00;98113.09;105732;1256;74003;-48
2023/03/10 06:25:59;;;;;;;6.30;3.50;;;;;;;6.38;100.00;98109.58;105631;1266;83491;-48
2023/03/10 06:28:31;;;;;;;4.90;3.30;;;;;;;6.44;100.00;98112.33;105621;1254;73734;-48
2023/03/10 06:31:02;;;;;;;6.70;3.70;;;;;;;6.50;100.00;98107.17;105765;1256;69883;-52
2023/03/10 06:33:31;;;;;;;7.20;3.50;;;;;;;6.54;100.00;98103.80;105564;1251;69823;-49
2023/03/10 06:35:59;;;;;;;8.70;3.90;;;;;;;6.58;100.00;98100.46;105935;1256;73943;-48
2023/03/10 06:38:29;;;;;;;7.00;3.40;;;;;;;6.62;100.00;98103.85;105803;1257;82331;-48
2023/03/10 06:40:57;;;;;;;7.00;4.30;;;;;;;6.65;100.00;98098.11;105725;1255;74010;-51
2023/03/10 06:43:25;;;;;;;8.70;4.10;;;;;;;6.67;100.00;98100.98;105758;1256;70005;-48
2023/03/10 06:45:54;;;;;;;7.80;4.60;;;;;;;6.70;100.00;98104.27;105646;1256;69980;-47
2023/03/10 06:48:22;;;;;;;6.50;4.20;;;;;;;6.75;100.00;98101.02;105591;1257;75325;-47
2023/03/10 06:50:50;;;;;;;10.50;5.60;;;;;;;6.81;100.00;98100.17;105588;1257;82625;-49
2023/03/10 06:53:20;;;;;;;8.40;4.40;;;;;;;6.84;100.00;98101.88;105822;1256;73775;-47
2023/03/10 06:56:02;;;;;;;7.30;4.00;;;;;;;6.87;100.00;98098.92;105687;1256;70008;-47
2023/03/10 06:58:33;;;;;;;7.50;4.30;;;;;;;6.90;100.00;98102.56;105608;1257;70100;-47
2023/03/10 07:01:02;;;;;;;8.00;4.40;;;;;;;6.95;100.00;98106.98;105595;1256;75096;-47
2023/03/10 07:03:30;;;;;;;10.00;4.60;;;;;;;6.97;100.00;98103.02;105726;1257;82578;-46
2023/03/10 07:05:58;;;;;;;7.90;3.90;;;;;;;7.00;100.00;98105.48;105901;1251;72970;-46
2023/03/10 07:08:28;;;;;;;8.00;4.30;;;;;;;7.05;100.00;98107.95;105767;1251;69979;-49
2023/03/10 07:10:56;;;;;;;5.40;3.60;;;;;;;7.09;100.00;98105.30;106042;1257;69803;-47
2023/03/10 07:13:24;;;;;;;7.20;3.60;;;;;;;7.09;100.00;98106.27;105577;1251;74797;-47
2023/03/10 07:15:52;;;;;;;6.10;3.60;;;;;;;7.10;100.00;98108.36;105555;1256;83915;-47
2023/03/10 07:18:21;;;;;;;8.90;4.20;;;;;;;7.11;100.00;98104.48;105577;1251;74881;-48
2023/03/10 07:20:51;;;;;;;6.60;3.00;;;;;;;7.16;100.00;98103.81;105676;1251;69973;-47
2023/03/10 07:23:20;;;;;;;;;;;;;;;7.24;100.00;98103.54;105714;1256;69960;-47
2023/03/10 07:25:55;;;;;;;6.00;2.90;;;;;;;7.29;100.00;98104.45;105596;1257;74835;-47
2023/03/10 07:28:24;;;;;;;8.00;2.70;;;;;;;7.31;100.00;98103.08;106182;1256;82841;-47
2023/03/10 07:30:55;;;;;;;6.00;2.60;;;;;;;7.33;100.00;98107.45;105939;1256;73604;-47
2023/03/10 07:33:23;;;;;;;6.00;2.60;;;;;;;7.37;100.00;98105.50;105706;1256;69995;-47
2023/03/10 07:35:51;;;;;;;6.20;2.60;;;;;;;7.43;100.00;98107.27;105556;1251;69899;-47
2023/03/10 07:38:20;;;;;;;6.70;2.90;;;;;;;7.47;100.00;98110.12;105522;1255;73873;-48
2023/03/10 07:40:48;;;;;;;7.80;2.70;;;;;;;7.51;100.00;98114.73;105489;1257;81898;-47
2023/03/10 07:43:16;;;;;;;5.00;2.80;;;;;;;7.55;100.00;98116.42;105588;1251;73705;-48
2023/03/10 07:45:45;;;;;;;5.10;2.60;;;;;;;7.55;100.00;98120.03;105856;1255;69894;-46
2023/03/10 07:48:13;;;;;;;6.90;3.30;;;;;;;7.57;100.00;98123.23;105713;1256;69899;-47
2023/03/10 07:50:41;;;;;;;6.00;2.80;;;;;;;7.59;100.00;98125.70;105574;1256;75040;-47
2023/03/10 07:53:10;;;;;;;5.70;2.30;;;;;;;7.66;100.00;98120.80;105512;1257;83196;-47
2023/03/10 07:55:38;;;;;;;7.10;2.50;;;;;;;7.72;100.00;98118.15;105599;1256;73895;-47
2023/03/10 07:58:06;;;;;;;4.80;2.20;;;;;;;7.77;100.00;98118.67;105825;1257;69991;-47
2023/03/10 08:00:34;;;;;;;3.80;1.90;;;;;;;7.84;100.00;98116.00;105567;1256;69992;-47
2023/03/10 08:03:03;;;;;;;5.00;2.60;;;;;;;7.91;100.00;98111.59;105590;1256;74240;-48
2023/03/10 08:05:31;;;;;;;12.10;4.50;;;;;;;7.99;100.00;98111.23;105525;1256;82094;-46
2023/03/10 08:07:59;;;;;;;5.30;2.80;;;;;;;8.07;100.00;98110.39;105692;1251;73719;-47
2023/03/10 08:10:27;;;;;;;4.90;3.00;;;;;;;8.14;100.00;98109.94;105563;1255;70015;-47
2023/03/10 08:12:55;;;;;;;6.50;2.80;;;;;;;8.21;100.00;98102.89;105584;1251;69887;-47
2023/03/10 08:15:25;;;;;;;7.30;3.10;;;;;;;8.29;100.00;98100.32;105549;1257;74530;-47
2023/03/10 08:17:53;;;;;;;5.70;2.20;;;;;;;8.39;100.00;98097.06;105569;1251;83468;-48
2023/03/10 08:20:21;;;;;;;6.80;2.50;;;;;;;8.45;100.00;98099.45;105565;1256;71825;-47
2023/03/10 08:22:52;;;;;;;4.30;2.30;;;;;;;8.49;100.00;98093.45;105898;1256;70027;-48
2023/03/10 08:25:20;;;;;;;;;;;;;;;8.56;100.00;98091.24;105859;1251;69945;-47
2023/03/10 08:27:48;;;;;;;6.70;3.00;;;;;;;8.64;100.00;98090.18;105747;1251;74503;-47
2023/03/10 08:30:17;;;;;;;5.40;2.50;;;;;;;8.72;100.00;98087.96;105549;1252;81879;-47
2023/03/10 08:32:45;;;;;;;5.30;2.90;;;;;;;8.78;100.00;98095.19;105765;1251;72678;-47
2023/03/10 08:35:15;;;;;;;4.50;2.70;;;;;;;8.82;100.00;98095.45;105565;1256;70014;-48
2023/03/10 08:37:43;;;;;;;5.40;2.90;;;;;;;8.87;100.00;98095.31;105620;1251;69865;-47
2023/03/10 08:40:14;;;;;;;6.90;3.10;;;;;;;8.89;100.00;98100.55;105551;1253;75038;-47
2023/03/10 08:42:43;;;;;;;6.70;2.90;;;;;;;8.95;100.00;98099.84;105552;1256;83207;-46
2023/03/10 08:45:15;;;;;;;6.10;3.00;;;;;;;9.00;100.00;98097.06;105505;1256;121047;-46
2023/03/10 08:47:43;;;;;;;5.30;2.50;;;;;;;9.04;100.00;98090.45;105542;1256;69975;-48
2023/03/10 08:50:12;;;;;;;10.70;4.90;;;;;;;9.11;100.00;98089.13;105631;1256;69894;-47
2023/03/10 08:52:40;;;;;;;6.70;3.00;;;;;;;9.18;100.00;98087.09;105995;1255;73931;-47
2023/03/10 08:55:09;;;;;;;7.30;3.50;;;;;;;9.25;100.00;98090.78;105600;1251;82585;-47
2023/03/10 08:57:38;;;;;;;6.70;3.40;;;;;;;9.34;100.00;98094.52;105596;1256;73663;-46
2023/03/10 09:00:11;;;;;;;5.30;2.60;;;;;;;9.47;100.00;98091.20;105585;1251;69872;-47
2023/03/10 09:02:39;;;;;;;6.80;3.10;;;;;;;9.63;100.00;98095.45;105588;1255;69998;-47
2023/03/10 09:05:09;;;;;;;5.80;2.40;;;;;;;9.77;100.00;98092.41;105598;1256;75057;-47
2023/03/10 09:07:37;;;;;;;6.00;2.60;;;;;;;9.87;100.00;98091.20;105594;1256;83312;-46
2023/03/10 09:10:06;;;;;;;7.60;2.90;;;;;;;9.95;100.00;98088.02;105564;1251;73742;-47
2023/03/10 09:12:34;;;;;;;6.70;2.80;;;;;;;10.01;100.00;98089.32;105689;1260;69960;-47
2023/03/10 09:15:06;;;;;;;6.30;2.70;;;;;;;10.12;100.00;98089.39;105570;1257;69904;-46
2023/03/10 09:17:34;;;;;;;5.90;2.80;;;;;;;10.25;100.00;98088.65;105551;1255;74643;-46
2023/03/10 09:20:06;;;;;;;5.20;2.20;;;;;;;10.38;100.00;98079.73;105542;1256;83404;-46
2023/03/10 09:22:34;;;;;;;4.40;1.80;;;;;;;10.50;100.00;98079.33;105607;1257;73769;-47
2023/03/10 09:25:03;;;;;;;6.70;3.80;;;;;;;10.59;100.00;98081.83;105637;1260;70325;-47
2023/03/10 09:27:31;;;;;;;9.90;5.90;;;;;;;10.65;100.00;98079.46;105649;1257;70471;-47
2023/03/10 09:29:59;;;;;;;5.90;2.80;;;;;;;10.74;100.00;98071.68;105581;1251;74552;-47
2023/03/10 09:32:28;;;;;;;4.10;2.30;;;;;;;10.83;100.00;98067.83;105771;1257;83943;-47
2023/03/10 09:34:57;;;;;;;3.30;1.50;;;;;;;10.92;100.00;98081.95;105526;1256;71836;-47
2023/03/10 09:37:25;;;;;;;4.20;1.50;;;;;;;11.04;100.00;98084.95;105802;1256;69894;-51
2023/03/10 09:39:53;;;;;;;3.70;2.10;;;;;;;11.19;100.00;98086.02;105577;1256;69946;-47
2023/03/10 09:42:30;;;;;;;4.70;2.30;;;;;;;11.35;100.00;98087.58;105560;1257;73985;-47
2023/03/10 09:45:17;;;;;;;4.80;2.30;;;;;;;11.52;100.00;98094.32;105936;1251;83473;-47
2023/03/10 09:47:54;;;;;;;3.80;1.60;;;;;;;11.64;100.00;98086.92;105614;1257;73872;-46
2023/03/10 09:50:40;;;;;;;2.90;1.60;;;;;;;11.71;99.98;98079.41;105734;1251;69878;-47
2023/03/10 09:54:02;;;;;;;4.50;1.50;;;;;;;11.74;99.59;98080.54;105496;1257;69920;-46
2023/03/10 09:56:33;;;;;;;3.70;1.40;;;;;;;11.76;98.25;98070.92;105001;1261;74498;-47
2023/03/10 09:59:13;;;;;;;2.80;1.30;;;;;;;11.80;98.21;98073.42;105778;1256;83878;-47
2023/03/10 10:01:47;;;;;;;3.20;1.80;;;;;;;11.83;97.91;98070.59;105607;1257;73648;-51
2023/03/10 10:04:24;;;;;;;2.80;1.80;;;;;;;11.83;97.66;98064.08;105725;1257;70001;-53
2023/03/10 10:06:53;;;;;;;3.00;1.40;;;;;;;11.87;97.26;98059.93;105601;1252;70334;-49
2023/03/10 10:09:21;;;;;;;3.40;1.80;;;;;;;11.95;97.15;98062.29;105735;1256;75061;-46
2023/03/10 10:11:50;;;;;;;5.40;2.40;;;;;;;12.04;96.78;98060.70;105816;1251;83403;-46
2023/03/10 10:14:21;;;;;;;4.60;1.90;;;;;;;12.19;96.39;98062.83;105549;1257;73884;-46
2023/03/10 10:17:18;;;;;;;3.80;2.30;;;;;;;12.32;95.83;98058.08;105523;1256;70001;-45
2023/03/10 10:19:46;;;;;;;3.80;2.10;;;;;;;12.41;95.24;98061.91;105597;1257;69955;-46
2023/03/10 10:22:23;;;;;;;3.30;1.60;;;;;;;12.50;94.99;98058.05;105607;1257;73223;-45
2023/03/10 10:25:00;;;;;;;2.60;1.20;;;;;;;12.59;93.80;98061.49;105576;1256;82247;-46
2023/03/10 10:27:31;;;;;;;3.90;1.70;;;;;;;12.64;93.66;98059.55;105900;1256;73448;-47
2023/03/10 10:30:29;;;;;;;5.60;1.70;;;;;;;12.69;92.79;98064.83;105508;1251;70056;-46
2023/03/10 10:33:00;;;;;;;3.50;1.50;;;;;;;12.69;91.68;98067.48;105715;1257;69809;-48
2023/03/10 10:35:35;;;;;;;3.30;1.10;;;;;;;12.69;91.00;98065.74;105619;1257;73125;-46
2023/03/10 10:38:23;;;;;;;2.40;0.90;;;;;;;12.67;90.21;98061.52;105625;1257;83254;-45
2023/03/10 10:41:03;;;;;;;4.30;1.20;;;;;;;12.71;89.87;98061.40;105588;1256;73158;-46
2023/03/10 10:43:44;;;;;;;2.60;0.90;;;;;;;12.76;89.08;98066.41;105596;1256;70011;-46
2023/03/10 10:46:14;;;;;;;2.60;1.00;;;;;;;12.88;89.08;98059.08;105570;1251;69865;-46
2023/03/10 10:48:45;;;;;;;1.70;0.80;;;;;;;12.92;87.35;98068.73;105598;1251;75013;-46
2023/03/10 10:51:19;;;;;;;3.20;1.40;;;;;;;12.85;86.59;98064.56;105785;1251;82462;-46
2023/03/10 10:53:47;;;;;;;2.90;1.10;;;;;;;12.78;83.57;98061.50;105549;1251;72709;-46
2023/03/10 10:56:17;;;;;;;2.70;0.80;;;;;;;12.78;83.83;98061.33;105533;1252;70002;-46
2023/03/10 10:59:03;;;;;;;1.60;0.80;;;;;;;12.85;84.83;98052.46;105492;1251;69846;-45
2023/03/10 11:01:51;;;;;;;1.80;0.80;;;;;;;13.17;85.84;98048.79;105522;1257;74846;-46
2023/03/10 11:04:21;;;;;;;2.50;1.00;;;;;;;13.45;85.66;98046.42;105572;1257;82538;-47
2023/03/10 11:06:49;;;;;;;2.30;1.00;;;;;;;13.51;84.78;98052.54;105613;1257;74000;-47
2023/03/10 11:09:20;;;;;;;1.70;0.80;;;;;;;13.45;82.79;98051.45;105799;1251;69978;-46
2023/03/10 11:11:57;;;;;;;2.60;1.20;;;;;;;13.35;82.62;98040.55;105618;1251;69852;-46
2023/03/10 11:14:31;;;;;;;2.10;0.80;;;;;;;13.30;82.78;98045.17;105631;1254;75006;-45
2023/03/10 11:17:03;;;;;;;1.90;1.10;;;;;;;13.28;82.78;98052.38;105515;1251;83494;-46
2023/03/10 11:19:44;;;;;;;1.60;0.80;;;;;;;13.23;81.46;98041.95;105560;1251;72718;-45
2023/03/10 11:22:36;;;;;;;2.30;1.10;;;;;;;13.22;82.32;98040.25;105575;1251;69979;-45
2023/03/10 11:25:18;;;;;;;2.70;1.20;;;;;;;13.29;82.86;98042.70;105292;1263;69992;-45
2023/03/10 11:28:11;;;;;;;1.50;1.00;;;;;;;13.30;81.99;98038.38;105652;1255;74979;-45
2023/03/10 11:31:10;;;;;;;3.90;1.10;;;;;;;13.25;81.34;98034.91;105557;1251;83569;-46
2023/03/10 11:33:47;;;;;;;1.80;0.90;;;;;;;13.21;81.32;98038.61;105691;1251;73767;-45
2023/03/10 11:36:22;;;;;;;3.50;0.90;;;;;;;13.13;80.68;98035.73;105520;1257;70050;-46